createdAt,value
2019-02-16T00:01:19.969Z,17.40
2019-02-16T00:03:49.152Z,16.27
2019-02-16T00:06:18.488Z,19.83
2019-02-16T00:08:47.660Z,16.27
2019-02-16T00:11:16.887Z,16.20
2019-02-16T00:13:46.093Z,18.83
2019-02-16T00:16:33.577Z,15.80
2019-02-16T00:19:02.786Z,15.23
2019-02-16T00:21:31.983Z,18.37
2019-02-16T00:24:01.171Z,14.93
2019-02-16T00:26:30.372Z,16.70
2019-02-16T00:28:59.572Z,16.77
2019-02-16T00:31:28.756Z,15.20
2019-02-16T00:33:57.968Z,18.43
2019-02-16T00:36:27.302Z,18.17
2019-02-16T00:38:56.515Z,17.57
2019-02-16T00:41:25.732Z,17.70
2019-02-16T00:43:54.945Z,17.23
2019-02-16T00:46:24.131Z,16.67
2019-02-16T00:48:53.316Z,16.03
2019-02-16T00:51:22.529Z,16.17
2019-02-16T00:53:51.713Z,17.70
2019-02-16T00:56:20.996Z,19.50
2019-02-16T00:58:50.258Z,21.50
2019-02-16T01:01:19.454Z,19.00
2019-02-16T01:03:48.658Z,20.20
2019-02-16T01:06:17.854Z,20.87
2019-02-16T01:08:47.026Z,21.50
2019-02-16T01:11:16.224Z,21.77
2019-02-16T01:13:45.444Z,19.53
2019-02-16T01:16:14.626Z,19.83
2019-02-16T01:18:43.826Z,23.37
2019-02-16T01:21:31.122Z,18.37
2019-02-16T01:24:18.449Z,21.07
2019-02-16T01:26:47.620Z,17.53
2019-02-16T01:29:16.798Z,20.10
2019-02-16T01:31:46.031Z,22.93
2019-02-16T01:34:15.243Z,21.83
2019-02-16T01:36:44.545Z,19.73
2019-02-16T01:39:13.763Z,20.13
2019-02-16T01:41:43.039Z,22.47
2019-02-16T01:44:12.310Z,18.53
2019-02-16T01:46:41.527Z,22.47
2019-02-16T01:49:10.711Z,23.17
2019-02-16T01:51:39.919Z,20.17
2019-02-16T01:54:09.152Z,21.30
2019-02-16T01:56:38.364Z,17.60
2019-02-16T01:59:07.562Z,17.63
2019-02-16T02:01:36.970Z,19.80
2019-02-16T02:04:06.169Z,20.70
2019-02-16T02:06:35.361Z,21.43
2019-02-16T02:09:05.659Z,20.27
2019-02-16T02:11:34.953Z,20.13
2019-02-16T02:14:04.136Z,19.70
2019-02-16T02:16:33.355Z,17.97
2019-02-16T02:19:02.484Z,20.67
2019-02-16T02:21:40.609Z,21.90
2019-02-16T02:24:02.670Z,22.37
2019-02-16T02:26:31.860Z,22.63
2019-02-16T02:29:01.090Z,19.27
2019-02-16T02:31:30.323Z,22.33
2019-02-16T02:33:59.527Z,21.17
2019-02-16T02:36:28.748Z,21.63
2019-02-16T02:38:58.023Z,20.60
2019-02-16T02:41:27.271Z,24.63
2019-02-16T02:43:56.476Z,24.63
2019-02-16T02:46:25.725Z,20.20
2019-02-16T02:48:54.959Z,20.97
2019-02-16T02:51:24.202Z,20.17
2019-02-16T02:53:53.496Z,19.20
2019-02-16T02:56:22.795Z,24.60
2019-02-16T02:58:52.019Z,20.13
2019-02-16T03:01:21.223Z,21.47
2019-02-16T03:03:50.437Z,20.07
2019-02-16T03:06:19.655Z,22.13
2019-02-16T03:08:48.857Z,22.30
2019-02-16T03:11:18.073Z,21.67
2019-02-16T03:13:47.304Z,24.60
2019-02-16T03:16:16.556Z,23.10
2019-02-16T03:18:45.757Z,21.30
2019-02-16T03:21:14.991Z,20.20
2019-02-16T03:23:44.186Z,20.73
2019-02-16T03:26:35.115Z,24.20
2019-02-16T03:29:15.649Z,22.90
2019-02-16T03:32:14.779Z,24.27
2019-02-16T03:34:49.657Z,20.30
2019-02-16T03:37:41.330Z,22.57
2019-02-16T03:40:12.372Z,26.70
2019-02-16T03:42:41.570Z,19.20
2019-02-16T03:45:10.969Z,21.33
2019-02-16T03:47:40.172Z,22.93
2019-02-16T03:50:09.539Z,21.00
2019-02-16T03:52:38.769Z,24.87
2019-02-16T03:55:08.042Z,22.53
2019-02-16T03:57:37.276Z,26.20
2019-02-16T04:00:09.268Z,21.93
2019-02-16T04:02:38.478Z,22.97
2019-02-16T04:05:09.093Z,21.80
2019-02-16T04:07:38.323Z,25.57
2019-02-16T04:10:07.799Z,24.70
2019-02-16T04:12:37.013Z,21.27
2019-02-16T04:15:06.889Z,23.67
2019-02-16T04:17:36.161Z,27.10
2019-02-16T04:20:07.085Z,23.87
2019-02-16T04:22:36.251Z,23.10
2019-02-16T04:25:05.657Z,22.43
2019-02-16T04:27:52.767Z,20.90
2019-02-16T04:30:21.973Z,22.67
2019-02-16T04:32:51.158Z,21.07
2019-02-16T04:35:20.337Z,21.50
2019-02-16T04:37:49.553Z,23.50
2019-02-16T04:40:18.759Z,23.97
2019-02-16T04:42:47.943Z,29.10
2019-02-16T04:45:17.131Z,23.60
2019-02-16T04:47:46.323Z,24.30
2019-02-16T04:50:15.500Z,28.33
2019-02-16T04:52:44.748Z,22.30
2019-02-16T04:55:13.881Z,24.20
2019-02-16T04:57:43.054Z,23.30
2019-02-16T05:00:12.237Z,27.90
2019-02-16T05:02:41.422Z,23.50
2019-02-16T05:05:10.713Z,27.53
2019-02-16T05:07:39.904Z,21.00
2019-02-16T05:10:10.755Z,22.23
2019-02-16T05:12:39.959Z,23.40
2019-02-16T05:15:09.925Z,23.50
2019-02-16T05:17:39.115Z,24.23
2019-02-16T05:20:08.779Z,23.20
2019-02-16T05:22:44.502Z,23.67
2019-02-16T05:25:08.884Z,24.23
2019-02-16T05:27:38.126Z,22.60
2019-02-16T05:30:08.900Z,24.80
2019-02-16T05:32:38.098Z,22.70
2019-02-16T05:35:07.313Z,22.37
2019-02-16T05:37:36.495Z,23.63
2019-02-16T05:40:08.211Z,27.43
2019-02-16T05:42:37.412Z,22.77
2019-02-16T05:45:07.033Z,22.83
2019-02-16T05:47:36.207Z,23.80
2019-02-16T05:50:05.656Z,27.83
2019-02-16T05:52:34.839Z,21.53
2019-02-16T05:55:04.430Z,26.73
2019-02-16T05:57:33.630Z,24.07
2019-02-16T06:00:02.873Z,22.87
2019-02-16T06:02:32.014Z,22.90
2019-02-16T06:05:01.218Z,23.50
2019-02-16T06:07:30.387Z,20.17
2019-02-16T06:09:59.578Z,22.63
2019-02-16T06:12:28.982Z,26.00
2019-02-16T06:14:58.152Z,23.17
2019-02-16T06:17:27.331Z,29.60
2019-02-16T06:19:56.518Z,28.67
2019-02-16T06:22:25.710Z,25.90
2019-02-16T06:24:54.898Z,21.93
2019-02-16T06:27:24.142Z,25.53
2019-02-16T06:29:53.318Z,25.13
2019-02-16T06:32:22.513Z,25.53
2019-02-16T06:34:53.351Z,28.07
2019-02-16T06:37:23.391Z,25.60
2019-02-16T06:39:52.745Z,25.57
2019-02-16T06:42:21.997Z,23.23
2019-02-16T06:44:51.193Z,25.77
2019-02-16T06:47:20.370Z,19.50
2019-02-16T06:49:49.553Z,25.43
2019-02-16T06:52:18.771Z,25.00
2019-02-16T06:54:47.964Z,25.93
2019-02-16T06:57:18.776Z,27.53
2019-02-16T06:59:47.987Z,28.40
2019-02-16T07:02:17.337Z,27.37
2019-02-16T07:04:46.579Z,24.87
2019-02-16T07:07:15.789Z,27.10
2019-02-16T07:09:44.982Z,26.47
2019-02-16T07:12:14.183Z,30.67
2019-02-16T07:14:43.398Z,32.63
2019-02-16T07:17:23.403Z,29.67
2019-02-16T07:19:53.520Z,28.53
2019-02-16T07:22:22.759Z,27.50
2019-02-16T07:24:51.995Z,27.40
2019-02-16T07:27:21.133Z,31.13
2019-02-16T07:29:50.312Z,29.03
2019-02-16T07:32:19.516Z,27.77
2019-02-16T07:34:48.780Z,27.00
2019-02-16T07:37:17.976Z,34.20
2019-02-16T07:39:47.229Z,32.20
2019-02-16T07:42:16.414Z,24.43
2019-02-16T07:44:47.413Z,26.00
2019-02-16T07:47:18.247Z,30.20
2019-02-16T07:49:51.497Z,29.87
2019-02-16T07:52:39.144Z,30.83
2019-02-16T07:55:09.975Z,24.70
2019-02-16T07:57:52.848Z,23.70
2019-02-16T08:00:26.404Z,33.27
2019-02-16T08:03:02.972Z,28.33
2019-02-16T08:05:39.200Z,27.07
2019-02-16T08:08:10.186Z,28.07
2019-02-16T08:10:46.652Z,24.43
2019-02-16T08:13:17.561Z,28.67
2019-02-16T08:15:51.130Z,25.40
2019-02-16T08:18:27.969Z,26.13
2019-02-16T08:21:07.640Z,26.70
2019-02-16T08:23:54.842Z,30.03
2019-02-16T08:26:37.608Z,31.30
2019-02-16T08:29:08.451Z,25.40
2019-02-16T08:31:39.279Z,30.80
2019-02-16T08:34:18.963Z,28.73
2019-02-16T08:36:52.236Z,23.60
2019-02-16T08:39:28.558Z,25.17
2019-02-16T08:41:59.411Z,26.60
2019-02-16T08:44:32.814Z,25.73
2019-02-16T08:47:03.654Z,27.43
2019-02-16T08:49:37.019Z,26.67
2019-02-16T08:52:16.368Z,26.87
2019-02-16T08:54:49.763Z,28.80
2019-02-16T08:57:33.848Z,30.10
2019-02-16T09:00:13.988Z,28.10
2019-02-16T09:03:00.935Z,28.43
2019-02-16T09:05:37.960Z,23.60
2019-02-16T09:08:08.810Z,29.97
2019-02-16T09:10:42.582Z,32.00
2019-02-16T09:13:13.430Z,28.33
2019-02-16T09:15:49.949Z,29.73
2019-02-16T09:18:23.427Z,25.00
2019-02-16T09:21:00.173Z,26.67
2019-02-16T09:23:36.873Z,23.60
2019-02-16T09:26:24.462Z,24.40
2019-02-16T09:29:07.331Z,26.10
2019-02-16T09:31:41.051Z,29.00
2019-02-16T09:34:11.898Z,29.23
2019-02-16T09:36:54.768Z,34.13
2019-02-16T09:39:34.402Z,30.93
2019-02-16T09:42:23.168Z,31.33
2019-02-16T09:44:54.023Z,27.97
2019-02-16T09:47:30.776Z,31.63
2019-02-16T09:50:02.941Z,26.37
2019-02-16T09:52:36.350Z,27.37
2019-02-16T09:55:08.092Z,28.60
2019-02-16T09:57:38.906Z,31.60
2019-02-16T10:00:26.915Z,30.57
2019-02-16T10:03:06.435Z,29.50
2019-02-16T10:05:53.547Z,27.57
2019-02-16T10:08:36.506Z,35.27
2019-02-16T10:11:22.670Z,33.33
2019-02-16T10:13:53.498Z,32.33
2019-02-16T10:16:24.363Z,30.50
2019-02-16T10:19:04.053Z,31.00
2019-02-16T10:21:47.009Z,29.93
2019-02-16T10:24:33.941Z,31.30
2019-02-16T10:27:13.832Z,32.77
2019-02-16T10:29:50.531Z,38.20
2019-02-16T10:32:37.260Z,32.60
2019-02-16T10:35:14.144Z,30.83
2019-02-16T10:37:44.975Z,35.73
2019-02-16T10:40:27.988Z,34.20
2019-02-16T10:42:58.822Z,33.77
2019-02-16T10:45:46.227Z,32.33
2019-02-16T10:48:19.593Z,32.20
2019-02-16T10:50:56.227Z,29.50
2019-02-16T10:53:29.818Z,33.90
2019-02-16T10:56:15.788Z,29.43
2019-02-16T10:59:04.803Z,30.77
2019-02-16T11:01:35.652Z,35.80
2019-02-16T11:04:06.573Z,33.80
2019-02-16T11:06:55.555Z,30.63
2019-02-16T11:09:41.507Z,33.13
2019-02-16T11:12:21.192Z,27.47
2019-02-16T11:14:57.757Z,38.37
2019-02-16T11:17:31.412Z,32.70
2019-02-16T11:20:02.227Z,30.17
2019-02-16T11:22:49.078Z,28.70
2019-02-16T11:25:31.901Z,29.03
2019-02-16T11:28:05.316Z,36.83
2019-02-16T11:30:38.756Z,30.87
2019-02-16T11:33:15.308Z,32.50
2019-02-16T11:35:48.723Z,31.00
2019-02-16T11:38:25.848Z,29.73
2019-02-16T11:41:18.586Z,33.30
2019-02-16T11:43:45.224Z,30.53
2019-02-16T11:46:25.012Z,34.73
2019-02-16T11:48:58.383Z,30.27
2019-02-16T11:51:44.506Z,32.87
2019-02-16T11:54:15.351Z,32.20
2019-02-16T11:56:46.185Z,29.40
2019-02-16T11:59:33.346Z,35.27
2019-02-16T12:02:04.163Z,32.60
2019-02-16T12:04:37.681Z,29.70
2019-02-16T12:07:08.591Z,35.03
2019-02-16T12:09:39.407Z,32.60
2019-02-16T12:12:22.204Z,31.33
2019-02-16T12:14:53.045Z,26.40
2019-02-16T12:17:26.567Z,31.33
2019-02-16T12:20:03.271Z,31.97
2019-02-16T12:22:43.167Z,32.20
2019-02-16T12:25:19.945Z,32.33
2019-02-16T12:28:07.114Z,31.93
2019-02-16T12:30:54.303Z,34.03
2019-02-16T12:33:41.436Z,36.07
2019-02-16T12:36:28.409Z,34.33
2019-02-16T12:39:15.542Z,34.43
2019-02-16T12:41:55.289Z,35.33
2019-02-16T12:44:28.671Z,33.07
2019-02-16T12:47:02.354Z,32.03
2019-02-16T12:49:41.811Z,37.17
2019-02-16T12:52:30.575Z,38.07
2019-02-16T12:55:14.417Z,40.57
2019-02-16T12:57:39.833Z,33.93
2019-02-16T13:00:15.303Z,32.87
2019-02-16T13:02:48.831Z,30.57
2019-02-16T13:05:25.585Z,34.63
2019-02-16T13:08:02.243Z,29.97
2019-02-16T13:10:33.084Z,34.67
2019-02-16T13:13:20.014Z,30.07
2019-02-16T13:15:56.553Z,31.80
2019-02-16T13:18:42.571Z,33.63
2019-02-16T13:21:19.198Z,30.80
2019-02-16T13:23:59.041Z,34.10
2019-02-16T13:26:38.757Z,31.43
2019-02-16T13:29:12.412Z,33.10
2019-02-16T13:31:58.169Z,33.23
2019-02-16T13:34:29.027Z,33.87
2019-02-16T13:37:08.462Z,32.00
2019-02-16T13:39:39.316Z,31.53
2019-02-16T13:42:10.775Z,35.10
2019-02-16T13:44:47.493Z,33.83
2019-02-16T13:47:18.319Z,32.53
2019-02-16T13:49:51.621Z,32.83
2019-02-16T13:52:22.445Z,35.80
2019-02-16T13:54:55.769Z,29.23
2019-02-16T13:57:38.845Z,35.13
2019-02-16T14:00:10.417Z,32.53
2019-02-16T14:02:44.041Z,31.77
2019-02-16T14:05:26.674Z,38.27
2019-02-16T14:08:12.611Z,33.70
2019-02-16T14:10:52.281Z,32.23
2019-02-16T14:13:23.115Z,34.10
2019-02-16T14:15:53.937Z,30.77
2019-02-16T14:18:23.135Z,35.13
2019-02-16T14:20:52.353Z,32.90
2019-02-16T14:23:21.545Z,33.93
2019-02-16T14:25:50.744Z,32.00
2019-02-16T14:28:19.932Z,34.17
2019-02-16T14:31:07.143Z,33.23
2019-02-16T14:33:54.510Z,32.80
2019-02-16T14:36:23.720Z,33.63
2019-02-16T14:38:54.553Z,34.13
2019-02-16T14:41:23.791Z,35.20
2019-02-16T14:43:52.955Z,34.43
2019-02-16T14:46:22.154Z,30.93
2019-02-16T14:48:51.346Z,32.83
2019-02-16T14:51:20.548Z,38.50
2019-02-16T14:53:49.726Z,33.77
2019-02-16T14:56:18.937Z,36.50
2019-02-16T14:58:48.114Z,38.87
2019-02-16T15:01:17.296Z,32.43
2019-02-16T15:03:46.523Z,32.33
2019-02-16T15:06:15.718Z,35.57
2019-02-16T15:08:44.882Z,38.70
2019-02-16T15:11:14.093Z,33.70
2019-02-16T15:13:45.016Z,38.37
2019-02-16T15:16:14.154Z,38.33
2019-02-16T15:18:43.352Z,36.87
2019-02-16T15:21:12.548Z,36.20
2019-02-16T15:23:41.744Z,35.43
2019-02-16T15:26:10.959Z,37.60
2019-02-16T15:28:41.078Z,37.87
2019-02-16T15:31:10.281Z,37.67
2019-02-16T15:33:39.377Z,36.60
2019-02-16T15:36:08.568Z,39.27
2019-02-16T15:38:37.767Z,40.33
2019-02-16T15:41:06.891Z,34.70
2019-02-16T15:43:36.075Z,36.67
2019-02-16T15:46:05.323Z,35.73
2019-02-16T15:48:34.539Z,37.13
2019-02-16T15:51:03.727Z,33.70
2019-02-16T15:53:32.918Z,31.30
2019-02-16T15:56:10.106Z,32.60
2019-02-16T15:58:33.054Z,36.60
2019-02-16T16:01:02.225Z,36.90
2019-02-16T16:03:31.402Z,34.13
2019-02-16T16:06:00.652Z,37.07
2019-02-16T16:08:31.500Z,31.07
2019-02-16T16:11:20.491Z,38.77
2019-02-16T16:13:57.261Z,36.50
2019-02-16T16:16:28.099Z,36.90
2019-02-16T16:18:58.926Z,37.23
2019-02-16T16:21:32.179Z,33.07
2019-02-16T16:24:06.165Z,35.93
2019-02-16T16:26:42.602Z,35.20
2019-02-16T16:29:13.442Z,33.10
2019-02-16T16:31:44.262Z,36.77
2019-02-16T16:34:24.164Z,41.33
2019-02-16T16:37:07.216Z,38.77
2019-02-16T16:39:50.266Z,38.63
2019-02-16T16:42:37.161Z,35.53
2019-02-16T16:45:14.813Z,39.83
2019-02-16T16:47:57.985Z,37.33
2019-02-16T16:50:28.830Z,43.57
2019-02-16T16:53:16.090Z,38.57
2019-02-16T16:55:53.120Z,33.03
2019-02-16T16:58:33.102Z,35.63
2019-02-16T17:01:15.732Z,37.43
2019-02-16T17:04:10.347Z,39.53
2019-02-16T17:06:50.025Z,37.57
2019-02-16T17:09:24.338Z,39.73
2019-02-16T17:11:55.181Z,42.57
2019-02-16T17:14:26.000Z,38.13
2019-02-16T17:16:56.838Z,37.23
2019-02-16T17:19:42.832Z,36.77
2019-02-16T17:22:13.656Z,41.53
2019-02-16T17:24:44.493Z,38.47
2019-02-16T17:27:24.159Z,39.93
2019-02-16T17:30:00.793Z,40.30
2019-02-16T17:32:31.655Z,42.20
2019-02-16T17:35:05.151Z,37.67
2019-02-16T17:37:38.903Z,39.13
2019-02-16T17:40:26.364Z,44.17
2019-02-16T17:43:03.117Z,44.00
2019-02-16T17:45:36.743Z,44.20
2019-02-16T17:48:16.486Z,38.57
2019-02-16T17:50:50.365Z,41.43
2019-02-16T17:53:21.227Z,40.87
2019-02-16T17:55:52.057Z,40.63
2019-02-16T17:58:41.178Z,45.20
2019-02-16T18:01:14.884Z,43.17
2019-02-16T18:03:45.717Z,39.83
2019-02-16T18:06:16.562Z,40.07
2019-02-16T18:08:47.419Z,39.73
2019-02-16T18:11:18.237Z,37.07
2019-02-16T18:13:49.063Z,40.10
2019-02-16T18:16:19.898Z,38.40
2019-02-16T18:18:50.743Z,39.77
2019-02-16T18:21:33.530Z,36.47
2019-02-16T18:24:10.183Z,37.13
2019-02-16T18:26:57.137Z,37.23
2019-02-16T18:29:33.591Z,46.50
2019-02-16T18:32:19.275Z,37.77
2019-02-16T18:34:52.681Z,37.03
2019-02-16T18:37:26.282Z,36.77
2019-02-16T18:40:03.241Z,38.87
2019-02-16T18:42:39.931Z,35.77
2019-02-16T18:45:28.995Z,35.97
2019-02-16T18:48:11.309Z,39.67
2019-02-16T18:50:58.437Z,37.30
2019-02-16T18:53:41.080Z,40.00
2019-02-16T18:56:14.758Z,39.30
2019-02-16T18:58:45.598Z,40.57
2019-02-16T19:01:16.432Z,40.53
2019-02-16T19:03:53.125Z,39.97
2019-02-16T19:06:35.900Z,41.73
2019-02-16T19:09:10.810Z,38.00
2019-02-16T19:11:44.283Z,42.13
2019-02-16T19:14:20.832Z,39.23
2019-02-16T19:17:00.498Z,42.40
2019-02-16T19:19:40.197Z,39.93
2019-02-16T19:22:17.109Z,43.47
2019-02-16T19:24:50.533Z,43.13
2019-02-16T19:27:21.354Z,46.23
2019-02-16T19:30:01.319Z,44.63
2019-02-16T19:32:50.259Z,40.80
2019-02-16T19:35:26.679Z,36.20
2019-02-16T19:38:06.603Z,41.40
2019-02-16T19:40:37.450Z,38.87
2019-02-16T19:43:10.977Z,46.63
2019-02-16T19:45:41.806Z,44.00
2019-02-16T19:48:12.650Z,41.23
2019-02-16T19:50:46.196Z,44.50
2019-02-16T19:53:22.956Z,48.23
2019-02-16T19:56:11.870Z,43.63
2019-02-16T19:58:42.748Z,45.73
2019-02-16T20:01:31.537Z,45.57
2019-02-16T20:04:18.263Z,43.60
2019-02-16T20:06:58.088Z,42.83
2019-02-16T20:09:28.916Z,46.77
2019-02-16T20:12:05.687Z,45.17
2019-02-16T20:14:52.432Z,50.77
2019-02-16T20:17:26.256Z,42.00
2019-02-16T20:20:06.257Z,42.53
2019-02-16T20:22:37.113Z,43.90
2019-02-16T20:25:10.621Z,43.23
2019-02-16T20:27:50.176Z,40.53
2019-02-16T20:30:33.135Z,43.53
2019-02-16T20:33:05.657Z,42.03
2019-02-16T20:35:42.315Z,46.83
2019-02-16T20:38:13.152Z,43.83
2019-02-16T20:40:43.995Z,44.73
2019-02-16T20:43:14.888Z,40.90
2019-02-16T20:45:54.691Z,43.33
2019-02-16T20:48:25.516Z,45.30
2019-02-16T20:50:56.335Z,41.57
2019-02-16T20:53:45.548Z,51.17
2019-02-16T20:56:32.394Z,47.70
2019-02-16T20:59:09.098Z,44.07
2019-02-16T21:01:51.924Z,43.60
2019-02-16T21:04:26.009Z,39.70
2019-02-16T21:06:56.841Z,43.17
2019-02-16T21:09:27.664Z,43.17
2019-02-16T21:12:01.106Z,43.10
2019-02-16T21:14:47.027Z,40.27
2019-02-16T21:17:34.119Z,42.70
2019-02-16T21:20:21.214Z,42.50
2019-02-16T21:23:09.995Z,39.93
2019-02-16T21:25:40.818Z,38.77
2019-02-16T21:28:11.644Z,42.03
2019-02-16T21:31:00.380Z,41.27
2019-02-16T21:33:40.045Z,41.20
2019-02-16T21:36:10.911Z,38.63
2019-02-16T21:38:44.357Z,37.70
2019-02-16T21:41:18.145Z,40.17
2019-02-16T21:44:06.940Z,40.37
2019-02-16T21:46:58.724Z,42.40
2019-02-16T21:49:29.617Z,43.27
2019-02-16T21:52:00.429Z,47.37
2019-02-16T21:54:31.302Z,39.73
2019-02-16T21:57:07.771Z,36.63
2019-02-16T21:59:54.963Z,42.30
2019-02-16T22:02:25.810Z,42.37
2019-02-16T22:05:02.297Z,38.47
2019-02-16T22:07:35.731Z,40.47
2019-02-16T22:10:14.336Z,43.03
2019-02-16T22:13:01.652Z,41.63
2019-02-16T22:15:30.909Z,38.70
2019-02-16T22:18:00.115Z,40.97
2019-02-16T22:20:29.344Z,41.87
2019-02-16T22:22:58.524Z,46.87
2019-02-16T22:25:27.732Z,45.77
2019-02-16T22:27:56.936Z,42.63
2019-02-16T22:30:26.135Z,41.47
2019-02-16T22:32:55.364Z,42.63
2019-02-16T22:35:24.536Z,47.47
2019-02-16T22:37:53.715Z,46.67
2019-02-16T22:40:22.928Z,46.70
2019-02-16T22:42:52.109Z,43.77
2019-02-16T22:45:21.289Z,44.67
2019-02-16T22:47:50.502Z,46.93
2019-02-16T22:50:19.711Z,44.13
2019-02-16T22:52:48.892Z,44.90
2019-02-16T22:55:18.094Z,40.30
2019-02-16T22:57:47.359Z,42.93
2019-02-16T23:00:38.242Z,42.13
2019-02-16T23:03:07.920Z,42.83
2019-02-16T23:05:37.163Z,40.47
2019-02-16T23:08:06.452Z,41.20
2019-02-16T23:10:35.630Z,45.30
2019-02-16T23:13:04.889Z,43.57
2019-02-16T23:15:34.094Z,42.73
2019-02-16T23:18:03.313Z,42.53
2019-02-16T23:20:32.576Z,41.53
2019-02-16T23:23:01.945Z,41.63
2019-02-16T23:25:31.146Z,45.50
2019-02-16T23:28:00.405Z,42.93
2019-02-16T23:30:29.596Z,42.10
2019-02-16T23:33:07.633Z,37.63
2019-02-16T23:35:36.814Z,38.23
2019-02-16T23:38:06.070Z,39.53
2019-02-16T23:40:35.283Z,39.33
2019-02-16T23:43:04.536Z,36.37
2019-02-16T23:45:33.728Z,39.50
2019-02-16T23:48:02.948Z,36.40
2019-02-16T23:50:32.126Z,39.43
2019-02-16T23:53:01.306Z,40.97
2019-02-16T23:55:30.520Z,43.13
2019-02-16T23:57:59.714Z,40.53
